createdAt,value
2023-07-17T00:04:25.947Z,100261.88
2023-07-17T00:09:27.617Z,100263.06
2023-07-17T00:14:30.284Z,100271.50
2023-07-17T00:19:31.953Z,100267.41
2023-07-17T00:24:33.831Z,100273.78
2023-07-17T00:29:35.448Z,100268.75
2023-07-17T00:34:37.131Z,100258.47
2023-07-17T00:39:39.021Z,100263.47
2023-07-17T00:44:40.940Z,100248.31
2023-07-17T00:49:42.833Z,100254.19
2023-07-17T00:54:44.857Z,100252.22
2023-07-17T00:59:47.019Z,100248.69
2023-07-17T01:04:48.703Z,100261.94
2023-07-17T01:09:50.360Z,100257.34
2023-07-17T01:14:52.025Z,100251.72
2023-07-17T01:19:53.905Z,100245.94
2023-07-17T01:24:55.547Z,100253.53
2023-07-17T01:29:57.251Z,100253.81
2023-07-17T01:34:58.926Z,100266.78
2023-07-17T01:40:00.616Z,100270.72
2023-07-17T01:45:06.364Z,100276.88
2023-07-17T01:50:08.307Z,100282.84
2023-07-17T01:55:10.090Z,100289.91
2023-07-17T02:00:14.068Z,100284.31
2023-07-17T02:05:15.926Z,100281.44
2023-07-17T02:10:18.253Z,100276.38
2023-07-17T02:15:19.964Z,100289.16
2023-07-17T02:20:22.053Z,100296.34
2023-07-17T02:25:23.855Z,100306.41
2023-07-17T02:30:25.571Z,100312.28
2023-07-17T02:35:27.207Z,100319.53
2023-07-17T02:40:28.882Z,100313.25
2023-07-17T02:45:32.048Z,100313.22
2023-07-17T02:50:33.823Z,100322.47
2023-07-17T02:55:35.469Z,100326.03
2023-07-17T03:00:37.161Z,100316.59
2023-07-17T03:05:38.920Z,100306.97
2023-07-17T03:10:40.676Z,100319.19
2023-07-17T03:15:42.393Z,100314.75
2023-07-17T03:20:45.275Z,100314.94
2023-07-17T03:25:47.829Z,100316.25
2023-07-17T03:30:49.561Z,100328.91
2023-07-17T03:35:52.232Z,100326.72
2023-07-17T03:40:54.603Z,100325.66
2023-07-17T03:45:56.277Z,100322.25
2023-07-17T03:50:59.423Z,100330.66
2023-07-17T03:56:04.719Z,100344.50
2023-07-17T04:01:06.809Z,100327.56
2023-07-17T04:06:15.378Z,100330.75
2023-07-17T04:11:17.578Z,100320.22
2023-07-17T04:16:26.700Z,100313.56
2023-07-17T04:21:29.847Z,100318.13
2023-07-17T04:26:31.553Z,100330.16
2023-07-17T04:31:34.064Z,100325.03
2023-07-17T04:36:36.967Z,100340.00
2023-07-17T04:41:38.893Z,100331.94
2023-07-17T04:46:40.690Z,100345.72
2023-07-17T04:51:42.674Z,100344.88
2023-07-17T04:56:44.419Z,100331.47
2023-07-17T05:01:51.988Z,100373.22
2023-07-17T05:06:54.131Z,100384.97
2023-07-17T05:11:56.699Z,100367.56
2023-07-17T05:16:59.025Z,100386.50
2023-07-17T05:22:01.658Z,100372.06
2023-07-17T05:27:06.035Z,100359.03
2023-07-17T05:32:08.672Z,100376.81
2023-07-17T05:37:10.479Z,100370.09
2023-07-17T05:42:13.413Z,100385.06
2023-07-17T05:47:15.289Z,100385.53
2023-07-17T05:52:17.511Z,100387.75
2023-07-17T05:57:19.674Z,100390.00
2023-07-17T06:02:21.597Z,100387.25
2023-07-17T06:07:23.954Z,100393.97
2023-07-17T06:12:25.560Z,100393.41
2023-07-17T06:17:27.203Z,100391.81
2023-07-17T06:22:28.891Z,100384.41
2023-07-17T06:27:30.662Z,100385.88
2023-07-17T06:32:32.706Z,100383.19
2023-07-17T06:37:34.394Z,100374.97
2023-07-17T06:42:36.047Z,100365.19
2023-07-17T06:47:38.317Z,100377.59
2023-07-17T06:52:40.253Z,100369.72
2023-07-17T06:57:41.894Z,100383.59
2023-07-17T07:02:43.598Z,100379.22
2023-07-17T07:07:45.278Z,100375.66
2023-07-17T07:12:46.904Z,100380.13
2023-07-17T07:17:48.914Z,100386.03
2023-07-17T07:22:50.698Z,100380.03
2023-07-17T07:27:52.508Z,100380.66
2023-07-17T07:32:54.397Z,100380.03
2023-07-17T07:37:56.115Z,100384.53
2023-07-17T07:42:59.240Z,100389.13
2023-07-17T07:48:01.133Z,100385.84
2023-07-17T07:53:03.017Z,100382.97
2023-07-17T07:58:05.042Z,100394.16
2023-07-17T08:03:07.009Z,100380.97
2023-07-17T08:08:09.058Z,100386.19
2023-07-17T08:13:10.959Z,100386.13
2023-07-17T08:18:12.836Z,100396.69
2023-07-17T08:23:14.643Z,100405.19
2023-07-17T08:28:16.521Z,100398.50
2023-07-17T08:33:18.134Z,100400.00
2023-07-17T08:38:19.790Z,100401.25
2023-07-17T08:43:25.011Z,100401.00
2023-07-17T08:48:27.472Z,100405.50
2023-07-17T08:53:29.161Z,100402.19
2023-07-17T08:58:30.864Z,100405.00
2023-07-17T09:03:33.783Z,100403.50
2023-07-17T09:08:35.681Z,100401.66
2023-07-17T09:13:41.454Z,100407.84
2023-07-17T09:18:43.297Z,100399.75
2023-07-17T09:23:49.846Z,100391.47
2023-07-17T09:28:52.526Z,100388.38
2023-07-17T09:33:58.775Z,100392.88
2023-07-17T09:39:00.720Z,100380.56
2023-07-17T09:44:07.050Z,100385.13
2023-07-17T09:49:09.155Z,100383.16
2023-07-17T09:54:11.777Z,100366.53
2023-07-17T09:59:19.261Z,100385.53
2023-07-17T10:04:33.209Z,100371.84
2023-07-17T10:09:39.374Z,100375.63
2023-07-17T10:14:44.244Z,100384.47
2023-07-17T10:19:45.988Z,100381.50
2023-07-17T10:24:49.227Z,100374.13
2023-07-17T10:29:52.247Z,100369.72
2023-07-17T10:34:54.742Z,100364.66
2023-07-17T10:40:09.964Z,100364.22
2023-07-17T10:45:12.319Z,100355.50
2023-07-17T10:50:13.997Z,100345.13
2023-07-17T10:55:15.696Z,100343.25
2023-07-17T11:00:17.996Z,100342.94
2023-07-17T11:05:20.190Z,100345.94
2023-07-17T11:10:23.198Z,100349.47
2023-07-17T11:15:24.997Z,100344.50
2023-07-17T11:20:27.063Z,100331.31
2023-07-17T11:25:30.178Z,100336.25
2023-07-17T11:30:35.547Z,100328.84
2023-07-17T11:35:47.069Z,100317.41
2023-07-17T11:40:56.571Z,100320.31
2023-07-17T11:46:03.414Z,100314.78
2023-07-17T11:51:06.728Z,100311.63
2023-07-17T11:56:08.534Z,100312.38
2023-07-17T12:01:10.170Z,100309.25
2023-07-17T12:06:11.930Z,100295.59
2023-07-17T12:11:14.266Z,100288.66
2023-07-17T12:16:15.922Z,100297.78
2023-07-17T12:21:21.213Z,100282.13
2023-07-17T12:26:27.576Z,100275.00
2023-07-17T12:31:29.371Z,100276.09
2023-07-17T12:36:30.988Z,100265.09
2023-07-17T12:41:32.616Z,100266.69
2023-07-17T12:46:34.343Z,100264.75
2023-07-17T12:51:36.024Z,100259.78
2023-07-17T12:56:37.614Z,100252.69
2023-07-17T13:01:39.411Z,100257.28
2023-07-17T13:06:41.078Z,100243.69
2023-07-17T13:11:42.850Z,100240.56
2023-07-17T13:16:45.697Z,100219.53
2023-07-17T13:21:47.352Z,100245.19
2023-07-17T13:26:49.163Z,100247.34
2023-07-17T13:31:50.940Z,100244.88
2023-07-17T13:36:52.628Z,100239.50
2023-07-17T13:41:54.302Z,100229.22
2023-07-17T13:46:57.181Z,100226.81
2023-07-17T13:51:58.890Z,100227.88
2023-07-17T13:57:03.477Z,100218.94
2023-07-17T14:02:05.320Z,100223.09
2023-07-17T14:07:06.990Z,100221.69
2023-07-17T14:12:08.915Z,100207.53
2023-07-17T14:17:10.598Z,100210.88
2023-07-17T14:22:12.242Z,100199.69
2023-07-17T14:27:13.870Z,100193.28
2023-07-17T14:32:15.470Z,100194.00
2023-07-17T14:37:17.078Z,100200.47
2023-07-17T14:42:18.675Z,100193.88
2023-07-17T14:47:20.550Z,100189.38
2023-07-17T14:52:22.228Z,100182.88
2023-07-17T14:57:23.858Z,100175.09
2023-07-17T15:02:25.431Z,100174.56
2023-07-17T15:07:27.130Z,100161.91
2023-07-17T15:12:28.769Z,100163.09
2023-07-17T15:17:30.409Z,100155.34
2023-07-17T15:22:32.253Z,100148.22
2023-07-17T15:27:33.853Z,100151.53
2023-07-17T15:32:35.486Z,100144.88
2023-07-17T15:37:37.085Z,100145.38
2023-07-17T15:42:38.719Z,100139.44
2023-07-17T15:47:40.392Z,100153.69
2023-07-17T15:52:42.338Z,100143.53
2023-07-17T15:57:43.969Z,100153.97
2023-07-17T16:02:45.635Z,100157.22
2023-07-17T16:07:47.341Z,100148.94
2023-07-17T16:12:48.958Z,100148.09
2023-07-17T16:17:50.579Z,100144.25
2023-07-17T16:22:52.301Z,100149.75
2023-07-17T16:27:54.029Z,100147.06
2023-07-17T16:32:55.676Z,100146.41
2023-07-17T16:37:57.320Z,100155.19
2023-07-17T16:42:58.979Z,100154.06
2023-07-17T16:48:00.658Z,100150.78
2023-07-17T16:53:02.271Z,100153.72
2023-07-17T16:58:04.570Z,100160.34
2023-07-17T17:03:06.835Z,100156.19
2023-07-17T17:08:09.053Z,100157.22
2023-07-17T17:13:10.746Z,100160.47
2023-07-17T17:18:12.410Z,100163.22
2023-07-17T17:23:14.198Z,100161.78
2023-07-17T17:28:17.172Z,100178.03
2023-07-17T17:33:19.546Z,100172.19
2023-07-17T17:38:21.336Z,100177.09
2023-07-17T17:43:23.045Z,100186.72
2023-07-17T17:48:24.806Z,100193.53
2023-07-17T17:53:26.737Z,100184.16
2023-07-17T17:58:29.201Z,100189.31
2023-07-17T18:03:31.101Z,100191.22
2023-07-17T18:08:32.998Z,100200.19
2023-07-17T18:13:34.636Z,100197.38
2023-07-17T18:18:36.329Z,100211.28
2023-07-17T18:23:38.404Z,100217.31
2023-07-17T18:28:40.144Z,100225.13
2023-07-17T18:33:41.757Z,100232.59
2023-07-17T18:38:43.444Z,100233.38
2023-07-17T18:43:46.489Z,100240.44
2023-07-17T18:48:50.141Z,100240.88
2023-07-17T18:53:52.397Z,100250.44
2023-07-17T18:58:54.205Z,100260.50
2023-07-17T19:03:55.992Z,100251.63
2023-07-17T19:08:57.783Z,100276.19
2023-07-17T19:13:59.517Z,100290.47
2023-07-17T19:19:01.359Z,100291.47
2023-07-17T19:24:07.110Z,100309.09
2023-07-17T19:29:08.802Z,100308.41
2023-07-17T19:34:10.465Z,100318.00
2023-07-17T19:39:12.996Z,100324.78
2023-07-17T19:44:17.822Z,100332.38
2023-07-17T19:49:20.329Z,100335.44
2023-07-17T19:54:21.908Z,100336.09
2023-07-17T19:59:23.581Z,100357.28
2023-07-17T20:04:26.249Z,100361.09
2023-07-17T20:09:33.270Z,100366.84
2023-07-17T20:14:35.249Z,100363.50
2023-07-17T20:19:39.495Z,100381.25
2023-07-17T20:24:41.134Z,100387.94
2023-07-17T20:29:42.750Z,100400.09
2023-07-17T20:34:44.347Z,100403.28
2023-07-17T20:39:46.028Z,100417.94
2023-07-17T20:44:47.644Z,100420.19
2023-07-17T20:49:49.241Z,100416.06
2023-07-17T20:54:50.896Z,100420.00
2023-07-17T20:59:52.632Z,100437.00
2023-07-17T21:04:54.256Z,100446.09
2023-07-17T21:09:57.201Z,100443.97
2023-07-17T21:14:58.890Z,100445.59
2023-07-17T21:20:00.550Z,100456.31
2023-07-17T21:25:02.196Z,100469.09
2023-07-17T21:30:05.552Z,100473.00
2023-07-17T21:35:07.579Z,100475.16
2023-07-17T21:40:09.762Z,100497.53
2023-07-17T21:45:11.523Z,100507.28
2023-07-17T21:50:13.345Z,100514.66
2023-07-17T21:55:15.957Z,100524.06
2023-07-17T22:00:18.073Z,100559.75
2023-07-17T22:05:19.946Z,100583.09
2023-07-17T22:10:21.582Z,100616.50
2023-07-17T22:15:23.231Z,100632.22
2023-07-17T22:20:25.267Z,100661.28
2023-07-17T22:25:26.876Z,100678.69
2023-07-17T22:30:28.867Z,100689.38
2023-07-17T22:35:30.541Z,100702.97
2023-07-17T22:40:34.851Z,100710.34
2023-07-17T22:45:36.499Z,100727.22
2023-07-17T22:50:38.204Z,100728.53
2023-07-17T22:55:43.978Z,100726.88
2023-07-17T23:00:45.958Z,100725.84
2023-07-17T23:05:50.239Z,100735.06
2023-07-17T23:16:10.951Z,100733.59
2023-07-17T23:21:12.633Z,100740.72
2023-07-17T23:26:14.260Z,100735.84
2023-07-17T23:31:16.127Z,100736.31
2023-07-17T23:36:19.466Z,100734.44
2023-07-17T23:41:22.482Z,100736.69
2023-07-17T23:46:24.285Z,100742.19
2023-07-17T23:51:25.899Z,100745.47
2023-07-17T23:56:27.698Z,100750.16
